Time;durP1;ratioP1;P1;durP2;ratioP2;P2;SDS_P1;SDS_P2;PMS_P1;PMS_P2;Temp;Humidity;BMP_temperature;BMP_pressure;BME280_temperature;BME280_humidity;BME280_pressure;Samples;Min_cycle;Max_cycle;Signal;HPM_P1;HPM_P2
2022/10/22 00:00:41;;;;;;;;;;;24.00;50.50;;;;;;492223;242;1187;-71
2022/10/22 00:02:42;;;;;;;;;;;24.00;50.50;;;;;;492192;242;1117;-72
2022/10/22 00:04:43;;;;;;;;;;;24.00;50.50;;;;;;492183;242;1129;-71
2022/10/22 00:06:45;;;;;;;;;;;24.00;50.40;;;;;;492200;242;1293;-71
2022/10/22 00:08:46;;;;;;;;;;;24.00;50.50;;;;;;492170;242;1147;-71
2022/10/22 00:10:47;;;;;;;;;;;23.90;50.50;;;;;;492100;242;1209;-71
2022/10/22 00:12:49;;;;;;;;;;;24.00;50.60;;;;;;492150;242;1150;-71
2022/10/22 00:14:50;;;;;;;;;;;24.00;50.60;;;;;;492201;242;2167;-71
2022/10/22 00:16:51;;;;;;;;;;;24.00;50.40;;;;;;492073;242;1254;-71
2022/10/22 00:18:53;;;;;;;;;;;24.00;50.30;;;;;;492192;242;1179;-71
2022/10/22 00:20:54;;;;;;;;;;;24.10;50.20;;;;;;492119;242;1142;-71
2022/10/22 00:22:56;;;;;;;;;;;24.10;50.20;;;;;;492134;242;1139;-71
2022/10/22 00:24:57;;;;;;;;;;;24.10;50.10;;;;;;492157;242;1162;-72
2022/10/22 00:26:58;;;;;;;;;;;24.10;50.10;;;;;;492030;242;1206;-71
2022/10/22 00:29:00;;;;;;;;;;;24.20;49.90;;;;;;492186;242;1155;-71
2022/10/22 00:31:01;;;;;;;;;;;24.20;49.80;;;;;;492208;242;1178;-71
2022/10/22 00:33:02;;;;;;;;;;;24.20;49.80;;;;;;492216;242;1204;-71
2022/10/22 00:35:04;;;;;;;;;;;24.30;49.70;;;;;;492158;242;2184;-71
2022/10/22 00:37:05;;;;;;;;;;;24.20;49.80;;;;;;492189;242;1120;-71
2022/10/22 00:39:06;;;;;;;;;;;24.30;49.70;;;;;;492138;242;1180;-71
2022/10/22 00:41:08;;;;;;;;;;;24.30;49.80;;;;;;492265;242;1277;-71
2022/10/22 00:43:09;;;;;;;;;;;24.30;49.80;;;;;;492206;242;1280;-71
2022/10/22 00:45:10;;;;;;;;;;;24.20;49.80;;;;;;492160;242;1220;-71
2022/10/22 00:47:12;;;;;;;;;;;24.10;50.10;;;;;;492278;242;1205;-71
2022/10/22 00:49:13;;;;;;;;;;;24.10;50.20;;;;;;492114;242;1156;-71
2022/10/22 00:51:14;;;;;;;;;;;24.10;50.20;;;;;;492152;242;1262;-71
2022/10/22 00:53:16;;;;;;;;;;;24.10;50.20;;;;;;492207;242;1189;-71
2022/10/22 00:55:17;;;;;;;;;;;24.10;50.40;;;;;;492177;242;2195;-71
2022/10/22 00:57:18;;;;;;;;;;;24.00;50.30;;;;;;492135;242;1251;-71
2022/10/22 00:59:20;;;;;;;;;;;24.10;50.30;;;;;;492201;242;1231;-71
2022/10/22 01:01:21;;;;;;;;;;;24.10;50.30;;;;;;492152;242;1146;-72
2022/10/22 01:03:22;;;;;;;;;;;24.10;50.40;;;;;;492190;242;1192;-71
2022/10/22 01:05:24;;;;;;;;;;;24.00;50.40;;;;;;492158;242;1103;-71
2022/10/22 01:07:25;;;;;;;;;;;24.00;50.50;;;;;;492178;242;1190;-71
2022/10/22 01:09:26;;;;;;;;;;;24.00;50.50;;;;;;492201;242;1120;-71
2022/10/22 01:11:28;;;;;;;;;;;24.00;50.40;;;;;;492150;242;1228;-71
2022/10/22 01:13:29;;;;;;;;;;;24.00;50.50;;;;;;492227;242;1139;-71
2022/10/22 01:15:30;;;;;;;;;;;24.00;50.50;;;;;;492186;242;2187;-71
2022/10/22 01:17:32;;;;;;;;;;;24.00;50.50;;;;;;492186;242;1229;-71
2022/10/22 01:19:33;;;;;;;;;;;24.00;50.60;;;;;;492228;242;1119;-71
2022/10/22 01:21:34;;;;;;;;;;;24.00;50.60;;;;;;492151;242;1236;-71
2022/10/22 01:23:36;;;;;;;;;;;24.00;50.60;;;;;;492175;242;1227;-71
2022/10/22 01:25:37;;;;;;;;;;;23.90;50.70;;;;;;492221;242;1150;-71
2022/10/22 01:27:38;;;;;;;;;;;24.00;50.70;;;;;;492170;242;1218;-71
2022/10/22 01:29:40;;;;;;;;;;;23.90;50.60;;;;;;492183;242;1308;-71
2022/10/22 01:31:43;;;;;;;;;;;23.90;50.60;;;;;;492159;242;1460;-71
2022/10/22 01:33:42;;;;;;;;;;;23.90;50.90;;;;;;492159;242;1392;-71
2022/10/22 01:35:44;;;;;;;;;;;23.90;50.90;;;;;;492204;242;2156;-71
2022/10/22 01:37:45;;;;;;;;;;;23.90;50.80;;;;;;492086;242;1098;-71
2022/10/22 01:39:46;;;;;;;;;;;24.00;50.70;;;;;;492202;242;1199;-72
2022/10/22 01:41:48;;;;;;;;;;;24.00;50.40;;;;;;492166;242;1265;-71
2022/10/22 01:43:49;;;;;;;;;;;24.00;50.40;;;;;;492228;242;1216;-72
2022/10/22 01:45:50;;;;;;;;;;;24.10;50.30;;;;;;492148;242;1168;-71
2022/10/22 01:47:52;;;;;;;;;;;24.10;50.20;;;;;;492216;242;1186;-71
2022/10/22 01:49:53;;;;;;;;;;;24.20;50.20;;;;;;492222;242;1424;-71
2022/10/22 01:51:54;;;;;;;;;;;24.20;50.00;;;;;;492162;242;1171;-71
2022/10/22 01:53:56;;;;;;;;;;;24.20;50.00;;;;;;492236;242;1178;-71
2022/10/22 01:55:57;;;;;;;;;;;24.20;50.00;;;;;;492157;242;2192;-71
2022/10/22 01:57:58;;;;;;;;;;;24.10;50.00;;;;;;492171;242;1172;-71
2022/10/22 02:00:00;;;;;;;;;;;24.20;49.90;;;;;;492200;242;1407;-72
2022/10/22 02:02:01;;;;;;;;;;;24.20;50.00;;;;;;492216;242;1203;-71
2022/10/22 02:04:02;;;;;;;;;;;24.30;49.90;;;;;;492211;242;1278;-71
2022/10/22 02:06:04;;;;;;;;;;;24.20;49.90;;;;;;492161;242;1186;-72
2022/10/22 02:08:05;;;;;;;;;;;24.20;49.80;;;;;;492149;242;1142;-71
2022/10/22 02:10:06;;;;;;;;;;;24.20;49.80;;;;;;492233;242;1182;-71
2022/10/22 02:12:08;;;;;;;;;;;24.10;50.00;;;;;;492096;242;1128;-71
2022/10/22 02:14:09;;;;;;;;;;;24.10;50.20;;;;;;492244;242;1164;-71
2022/10/22 02:16:10;;;;;;;;;;;24.10;50.00;;;;;;492157;242;2148;-72
2022/10/22 02:18:12;;;;;;;;;;;24.20;50.00;;;;;;492212;242;1114;-71
2022/10/22 02:20:13;;;;;;;;;;;24.10;50.00;;;;;;492177;242;1140;-71
2022/10/22 02:22:14;;;;;;;;;;;24.10;50.10;;;;;;492108;242;1270;-71
2022/10/22 02:24:16;;;;;;;;;;;24.10;50.10;;;;;;492223;242;1139;-71
2022/10/22 02:26:17;;;;;;;;;;;24.00;50.10;;;;;;492212;242;1143;-71
2022/10/22 02:28:19;;;;;;;;;;;24.10;50.20;;;;;;492210;242;1184;-71
2022/10/22 02:30:20;;;;;;;;;;;24.10;50.00;;;;;;492249;242;1182;-71
2022/10/22 02:32:21;;;;;;;;;;;24.10;49.90;;;;;;492270;242;1196;-71
2022/10/22 02:34:22;;;;;;;;;;;24.20;49.80;;;;;;492231;242;1125;-71
2022/10/22 02:36:24;;;;;;;;;;;24.20;49.80;;;;;;492253;242;2195;-71
2022/10/22 02:38:25;;;;;;;;;;;24.20;49.90;;;;;;492152;242;1157;-71
2022/10/22 02:40:26;;;;;;;;;;;24.10;49.90;;;;;;492225;242;1188;-71
2022/10/22 02:42:28;;;;;;;;;;;24.20;49.90;;;;;;492247;242;1173;-71
2022/10/22 02:44:29;;;;;;;;;;;24.10;49.90;;;;;;492184;242;1195;-71
2022/10/22 02:46:30;;;;;;;;;;;24.20;49.90;;;;;;492257;242;1098;-71
2022/10/22 02:48:32;;;;;;;;;;;24.20;49.90;;;;;;492141;242;1171;-71
2022/10/22 02:50:33;;;;;;;;;;;24.20;49.80;;;;;;492209;242;1094;-71
2022/10/22 02:52:34;;;;;;;;;;;24.20;49.80;;;;;;492226;242;1167;-71
2022/10/22 02:54:36;;;;;;;;;;;24.30;49.70;;;;;;492169;242;1174;-71
2022/10/22 02:56:37;;;;;;;;;;;24.20;49.70;;;;;;492171;242;2216;-71
2022/10/22 02:58:38;;;;;;;;;;;24.20;49.80;;;;;;492156;242;1157;-71
2022/10/22 03:00:40;;;;;;;;;;;24.20;49.80;;;;;;492194;242;1118;-71
2022/10/22 03:02:41;;;;;;;;;;;24.20;49.80;;;;;;492240;242;1200;-71
2022/10/22 03:04:43;;;;;;;;;;;24.30;49.70;;;;;;492175;242;1204;-71
2022/10/22 03:06:44;;;;;;;;;;;24.30;49.70;;;;;;492292;242;1118;-71
2022/10/22 03:08:45;;;;;;;;;;;24.30;49.60;;;;;;492142;242;1205;-71
2022/10/22 03:10:46;;;;;;;;;;;24.30;49.80;;;;;;492247;242;1206;-71
2022/10/22 03:12:48;;;;;;;;;;;24.20;49.90;;;;;;492179;242;1140;-71
2022/10/22 03:14:49;;;;;;;;;;;24.30;49.80;;;;;;492216;242;1208;-72
2022/10/22 03:16:51;;;;;;;;;;;24.20;49.70;;;;;;492242;242;2192;-71
2022/10/22 03:18:52;;;;;;;;;;;24.30;49.70;;;;;;492272;242;1080;-71
2022/10/22 03:20:53;;;;;;;;;;;24.30;49.80;;;;;;492178;242;1159;-71
2022/10/22 03:22:55;;;;;;;;;;;24.30;49.80;;;;;;492210;242;1130;-71
2022/10/22 03:24:57;;;;;;;;;;;24.30;49.80;;;;;;492170;242;1174;-71
2022/10/22 03:26:57;;;;;;;;;;;24.20;49.80;;;;;;492182;242;1452;-71
2022/10/22 03:28:59;;;;;;;;;;;24.20;50.00;;;;;;492218;242;1510;-71
2022/10/22 03:31:01;;;;;;;;;;;24.20;50.00;;;;;;492187;242;1197;-71
2022/10/22 03:33:02;;;;;;;;;;;24.20;49.90;;;;;;492176;242;1189;-72
2022/10/22 03:35:04;;;;;;;;;;;24.20;49.80;;;;;;492208;242;1191;-71
2022/10/22 03:37:05;;;;;;;;;;;24.20;49.90;;;;;;492096;242;2148;-71
2022/10/22 03:39:06;;;;;;;;;;;24.10;50.00;;;;;;492126;242;1099;-71
2022/10/22 03:41:07;;;;;;;;;;;24.10;50.30;;;;;;492127;242;1132;-71
2022/10/22 03:43:09;;;;;;;;;;;24.10;50.30;;;;;;492171;242;1135;-71
2022/10/22 03:45:10;;;;;;;;;;;24.10;50.10;;;;;;492203;242;1150;-71
2022/10/22 03:47:11;;;;;;;;;;;24.20;50.10;;;;;;492148;242;1343;-71
2022/10/22 03:49:13;;;;;;;;;;;24.20;50.00;;;;;;492198;242;1193;-71
2022/10/22 03:51:14;;;;;;;;;;;24.20;50.00;;;;;;492129;242;1126;-71
2022/10/22 03:53:15;;;;;;;;;;;24.30;49.90;;;;;;492199;242;1135;-71
2022/10/22 03:55:17;;;;;;;;;;;24.20;50.00;;;;;;492211;242;1290;-71
2022/10/22 03:57:18;;;;;;;;;;;24.10;50.20;;;;;;492201;242;2196;-71
2022/10/22 03:59:19;;;;;;;;;;;24.20;50.00;;;;;;492215;242;1229;-71
2022/10/22 04:01:21;;;;;;;;;;;24.20;50.00;;;;;;492225;242;1686;-71
2022/10/22 04:03:22;;;;;;;;;;;24.20;50.00;;;;;;492281;242;1234;-71
2022/10/22 04:05:23;;;;;;;;;;;24.30;49.90;;;;;;492268;242;1186;-71
2022/10/22 04:07:25;;;;;;;;;;;24.30;49.70;;;;;;492148;242;1249;-71
2022/10/22 04:09:26;;;;;;;;;;;24.20;49.80;;;;;;492242;242;1179;-71
2022/10/22 04:11:28;;;;;;;;;;;24.20;49.90;;;;;;492259;242;1172;-71
2022/10/22 04:13:29;;;;;;;;;;;24.30;49.80;;;;;;492235;242;1230;-72
2022/10/22 04:15:31;;;;;;;;;;;24.30;49.70;;;;;;492235;242;1101;-71
2022/10/22 04:17:32;;;;;;;;;;;24.30;49.80;;;;;;492152;242;2183;-71
2022/10/22 04:19:33;;;;;;;;;;;24.30;49.70;;;;;;492226;242;1226;-71
2022/10/22 04:21:34;;;;;;;;;;;24.20;49.70;;;;;;492276;242;1178;-71
2022/10/22 04:23:36;;;;;;;;;;;24.40;49.60;;;;;;492115;242;1184;-71
2022/10/22 04:25:37;;;;;;;;;;;24.40;49.30;;;;;;492194;242;1233;-72
2022/10/22 04:27:38;;;;;;;;;;;24.50;49.30;;;;;;492168;242;1201;-72
2022/10/22 04:29:40;;;;;;;;;;;24.50;49.20;;;;;;492172;242;1179;-72
2022/10/22 04:31:41;;;;;;;;;;;24.50;49.30;;;;;;492191;242;1159;-71
2022/10/22 04:33:42;;;;;;;;;;;24.40;49.20;;;;;;492158;242;1139;-71
2022/10/22 04:35:44;;;;;;;;;;;24.40;49.20;;;;;;492158;242;1200;-71
2022/10/22 04:37:45;;;;;;;;;;;24.50;49.20;;;;;;492193;242;2152;-71
2022/10/22 04:39:46;;;;;;;;;;;24.50;49.20;;;;;;492160;242;1189;-71
2022/10/22 04:41:48;;;;;;;;;;;24.40;49.10;;;;;;492285;242;1119;-71
2022/10/22 04:43:49;;;;;;;;;;;24.50;49.10;;;;;;492222;242;1207;-71
2022/10/22 04:45:50;;;;;;;;;;;24.50;49.50;;;;;;492214;242;1119;-71
2022/10/22 04:47:52;;;;;;;;;;;24.40;49.30;;;;;;492208;242;1161;-71
2022/10/22 04:49:53;;;;;;;;;;;24.40;49.40;;;;;;492236;242;1098;-71
2022/10/22 04:51:54;;;;;;;;;;;24.30;49.50;;;;;;492257;242;1095;-71
2022/10/22 04:53:56;;;;;;;;;;;24.20;49.60;;;;;;492254;242;1072;-72
2022/10/22 04:55:57;;;;;;;;;;;24.20;49.70;;;;;;492240;242;1216;-71
2022/10/22 04:57:58;;;;;;;;;;;24.10;49.80;;;;;;492258;242;2192;-71
2022/10/22 05:00:00;;;;;;;;;;;24.10;49.90;;;;;;492125;242;1157;-72
2022/10/22 05:02:01;;;;;;;;;;;24.00;50.00;;;;;;492230;242;1221;-72
2022/10/22 05:04:02;;;;;;;;;;;24.00;50.00;;;;;;492234;242;1120;-71
2022/10/22 05:06:04;;;;;;;;;;;24.00;50.00;;;;;;492141;242;1194;-71
2022/10/22 05:08:05;;;;;;;;;;;24.00;50.00;;;;;;492170;242;1309;-71
2022/10/22 05:10:06;;;;;;;;;;;23.90;50.00;;;;;;492159;242;1167;-71
2022/10/22 05:12:08;;;;;;;;;;;23.90;50.00;;;;;;492219;242;1150;-71
2022/10/22 05:14:09;;;;;;;;;;;23.90;50.10;;;;;;492187;242;1514;-72
2022/10/22 05:16:10;;;;;;;;;;;23.90;50.10;;;;;;492185;242;1257;-71
2022/10/22 05:18:12;;;;;;;;;;;23.90;50.10;;;;;;492187;242;2203;-71
2022/10/22 05:20:13;;;;;;;;;;;23.90;50.10;;;;;;492199;242;1118;-71
2022/10/22 05:22:14;;;;;;;;;;;23.80;50.10;;;;;;492205;242;1331;-71
2022/10/22 05:24:16;;;;;;;;;;;23.80;50.20;;;;;;492185;242;1181;-71
2022/10/22 05:26:17;;;;;;;;;;;23.70;50.40;;;;;;492157;242;1152;-71
2022/10/22 05:28:18;;;;;;;;;;;23.70;50.40;;;;;;492175;242;1147;-72
2022/10/22 05:30:20;;;;;;;;;;;23.80;50.30;;;;;;492254;242;1149;-71
2022/10/22 05:32:21;;;;;;;;;;;23.90;50.10;;;;;;492144;242;1143;-71
2022/10/22 05:34:22;;;;;;;;;;;23.90;50.00;;;;;;492253;242;1972;-71
2022/10/22 05:36:24;;;;;;;;;;;24.00;49.90;;;;;;492142;242;1175;-71
2022/10/22 05:38:25;;;;;;;;;;;24.00;49.60;;;;;;492225;242;2179;-71
2022/10/22 05:40:26;;;;;;;;;;;24.00;49.70;;;;;;492199;242;1170;-72
2022/10/22 05:42:28;;;;;;;;;;;24.10;49.50;;;;;;492197;242;1196;-71
2022/10/22 05:44:29;;;;;;;;;;;24.00;49.50;;;;;;492287;242;1144;-71
2022/10/22 05:46:30;;;;;;;;;;;24.10;49.50;;;;;;492146;242;1154;-71
2022/10/22 05:48:32;;;;;;;;;;;24.10;49.30;;;;;;492190;242;1339;-71
2022/10/22 05:50:33;;;;;;;;;;;24.10;49.30;;;;;;492191;242;1150;-71
2022/10/22 05:52:34;;;;;;;;;;;24.20;49.20;;;;;;492139;242;1266;-71
2022/10/22 05:54:36;;;;;;;;;;;24.20;49.10;;;;;;492272;242;1172;-71
2022/10/22 05:56:37;;;;;;;;;;;24.20;49.00;;;;;;492217;242;1252;-72
2022/10/22 05:58:38;;;;;;;;;;;24.20;48.90;;;;;;492154;242;2124;-72
2022/10/22 06:00:40;;;;;;;;;;;24.30;48.90;;;;;;492263;242;1196;-71
2022/10/22 06:02:41;;;;;;;;;;;24.30;48.90;;;;;;492193;242;1198;-71
2022/10/22 06:04:42;;;;;;;;;;;24.30;48.90;;;;;;492206;242;1229;-71
2022/10/22 06:06:44;;;;;;;;;;;24.30;48.70;;;;;;492231;242;1117;-71
2022/10/22 06:08:45;;;;;;;;;;;24.40;48.80;;;;;;492150;242;1101;-71
2022/10/22 06:10:46;;;;;;;;;;;24.40;48.70;;;;;;492160;242;1178;-71
2022/10/22 06:12:48;;;;;;;;;;;24.30;48.80;;;;;;492203;242;1147;-71
2022/10/22 06:14:49;;;;;;;;;;;24.30;48.80;;;;;;492207;242;1324;-72
2022/10/22 06:16:50;;;;;;;;;;;24.30;48.70;;;;;;492191;242;1291;-71
2022/10/22 06:18:52;;;;;;;;;;;24.40;48.70;;;;;;492154;242;2116;-72
2022/10/22 06:20:53;;;;;;;;;;;24.40;48.70;;;;;;492199;242;1309;-71
2022/10/22 06:22:54;;;;;;;;;;;24.50;48.50;;;;;;492170;242;1342;-71
2022/10/22 06:24:56;;;;;;;;;;;24.50;48.50;;;;;;492153;242;1134;-71
2022/10/22 06:26:57;;;;;;;;;;;24.40;48.60;;;;;;492207;242;1182;-71
2022/10/22 06:28:59;;;;;;;;;;;24.50;48.50;;;;;;492180;242;1153;-72
2022/10/22 06:31:00;;;;;;;;;;;24.40;48.60;;;;;;492205;242;1186;-71
2022/10/22 06:33:01;;;;;;;;;;;24.40;48.50;;;;;;492166;242;1247;-71
2022/10/22 06:35:02;;;;;;;;;;;24.50;48.40;;;;;;492237;242;1264;-71
2022/10/22 06:37:04;;;;;;;;;;;24.40;48.50;;;;;;492234;242;2156;-71
2022/10/22 06:39:05;;;;;;;;;;;24.40;48.60;;;;;;492311;242;1197;-71
2022/10/22 06:41:07;;;;;;;;;;;24.30;48.70;;;;;;492211;242;1178;-71
2022/10/22 06:43:08;;;;;;;;;;;24.30;48.70;;;;;;492217;242;1095;-71
2022/10/22 06:45:09;;;;;;;;;;;24.30;48.80;;;;;;492232;242;1153;-71
2022/10/22 06:47:11;;;;;;;;;;;24.20;48.70;;;;;;492276;242;1166;-71
2022/10/22 06:49:12;;;;;;;;;;;24.20;48.80;;;;;;492269;242;1372;-71
2022/10/22 06:51:13;;;;;;;;;;;24.10;49.00;;;;;;492195;242;1169;-71
2022/10/22 06:53:15;;;;;;;;;;;24.10;49.10;;;;;;492270;242;1264;-71
2022/10/22 06:55:16;;;;;;;;;;;24.10;49.20;;;;;;492179;242;1110;-71
2022/10/22 06:57:17;;;;;;;;;;;24.10;49.20;;;;;;492236;242;2183;-71
2022/10/22 06:59:19;;;;;;;;;;;24.00;49.20;;;;;;492233;242;1071;-71
2022/10/22 07:01:20;;;;;;;;;;;24.00;49.40;;;;;;492234;242;1119;-71
2022/10/22 07:03:21;;;;;;;;;;;24.00;49.30;;;;;;492301;242;1155;-71
2022/10/22 07:05:23;;;;;;;;;;;24.00;49.40;;;;;;492223;242;1292;-72
2022/10/22 07:07:24;;;;;;;;;;;23.90;49.40;;;;;;492169;242;1207;-71
2022/10/22 07:09:25;;;;;;;;;;;23.90;49.40;;;;;;492205;242;1114;-71
2022/10/22 07:11:27;;;;;;;;;;;24.00;49.40;;;;;;492204;242;1183;-71
2022/10/22 07:13:28;;;;;;;;;;;24.00;49.40;;;;;;492218;242;1278;-71
2022/10/22 07:15:29;;;;;;;;;;;24.00;49.30;;;;;;492226;242;1102;-71
2022/10/22 07:17:31;;;;;;;;;;;24.00;49.30;;;;;;492163;242;2195;-71
2022/10/22 07:19:32;;;;;;;;;;;24.00;49.30;;;;;;492232;242;1132;-72
2022/10/22 07:21:33;;;;;;;;;;;24.00;49.40;;;;;;492168;242;1185;-71
2022/10/22 07:23:35;;;;;;;;;;;24.00;49.40;;;;;;492226;242;1247;-71
2022/10/22 07:25:36;;;;;;;;;;;23.90;49.40;;;;;;492181;242;1120;-71
2022/10/22 07:27:37;;;;;;;;;;;23.90;49.50;;;;;;492283;242;1112;-71
2022/10/22 07:29:39;;;;;;;;;;;23.90;49.60;;;;;;492263;242;1195;-73
2022/10/22 07:31:40;;;;;;;;;;;23.80;49.80;;;;;;492168;242;1171;-74
2022/10/22 07:33:41;;;;;;;;;;;23.80;49.80;;;;;;492227;242;1194;-74
2022/10/22 07:35:43;;;;;;;;;;;23.80;49.80;;;;;;492159;242;1359;-74
2022/10/22 07:37:44;;;;;;;;;;;23.90;49.80;;;;;;492196;242;2204;-74
2022/10/22 07:39:45;;;;;;;;;;;23.90;49.80;;;;;;492174;242;1221;-74
2022/10/22 07:41:47;;;;;;;;;;;23.80;49.70;;;;;;492199;242;1112;-74
2022/10/22 07:43:48;;;;;;;;;;;23.90;49.60;;;;;;492171;242;1214;-74
2022/10/22 07:45:49;;;;;;;;;;;23.90;49.60;;;;;;492171;242;1155;-74
2022/10/22 07:47:51;;;;;;;;;;;24.00;49.40;;;;;;492193;242;1151;-74
2022/10/22 07:49:52;;;;;;;;;;;24.00;49.40;;;;;;492262;242;1267;-74
2022/10/22 07:51:55;;;;;;;;;;;24.00;49.40;;;;;;492207;242;1123;-74
2022/10/22 07:53:55;;;;;;;;;;;24.00;49.30;;;;;;492226;242;1446;-74
2022/10/22 07:55:56;;;;;;;;;;;24.10;49.30;;;;;;492219;242;1317;-74
2022/10/22 07:57:57;;;;;;;;;;;24.00;49.30;;;;;;492151;242;2187;-73
2022/10/22 07:59:59;;;;;;;;;;;24.00;49.30;;;;;;492240;242;1112;-74
2022/10/22 08:02:00;;;;;;;;;;;24.00;49.20;;;;;;492111;242;1247;-74
2022/10/22 08:04:01;;;;;;;;;;;24.10;49.20;;;;;;492237;242;1192;-74
2022/10/22 08:06:03;;;;;;;;;;;24.10;49.10;;;;;;492122;242;1319;-74
2022/10/22 08:08:04;;;;;;;;;;;24.10;49.20;;;;;;492156;242;1185;-74
2022/10/22 08:10:05;;;;;;;;;;;24.10;49.20;;;;;;492175;242;1153;-74
2022/10/22 08:12:07;;;;;;;;;;;24.10;49.10;;;;;;492204;242;1200;-74
2022/10/22 08:14:08;;;;;;;;;;;24.10;49.00;;;;;;492151;242;1207;-74
2022/10/22 08:16:09;;;;;;;;;;;24.10;49.10;;;;;;492145;242;1160;-74
2022/10/22 08:18:11;;;;;;;;;;;24.10;49.00;;;;;;492186;242;2192;-74
2022/10/22 08:20:12;;;;;;;;;;;24.20;49.00;;;;;;492339;242;1187;-74
2022/10/22 08:22:13;;;;;;;;;;;24.10;49.00;;;;;;492166;242;1078;-74
2022/10/22 08:24:15;;;;;;;;;;;24.20;49.00;;;;;;492283;242;1097;-74
2022/10/22 08:26:17;;;;;;;;;;;24.10;48.90;;;;;;492228;242;1145;-74
2022/10/22 08:28:17;;;;;;;;;;;24.10;49.00;;;;;;492206;242;1776;-74
2022/10/22 08:30:19;;;;;;;;;;;24.10;49.00;;;;;;492245;242;1181;-74
2022/10/22 08:32:20;;;;;;;;;;;24.10;48.90;;;;;;492167;242;1214;-74
2022/10/22 08:34:21;;;;;;;;;;;24.10;48.90;;;;;;492365;242;1189;-74
2022/10/22 08:36:23;;;;;;;;;;;24.10;49.00;;;;;;492184;242;1213;-74
2022/10/22 08:38:24;;;;;;;;;;;24.10;49.00;;;;;;492230;242;2216;-74
2022/10/22 08:40:25;;;;;;;;;;;24.10;48.90;;;;;;492224;242;1238;-74
2022/10/22 08:42:27;;;;;;;;;;;24.10;49.00;;;;;;492186;242;1186;-73
2022/10/22 08:44:28;;;;;;;;;;;24.00;49.00;;;;;;492210;242;1164;-73
2022/10/22 08:46:29;;;;;;;;;;;24.00;49.00;;;;;;492228;242;1213;-74
2022/10/22 08:48:31;;;;;;;;;;;24.10;49.00;;;;;;492150;242;1215;-74
2022/10/22 08:50:32;;;;;;;;;;;24.00;49.00;;;;;;492236;242;1191;-74
2022/10/22 08:52:33;;;;;;;;;;;24.00;49.10;;;;;;492153;242;1265;-74
2022/10/22 08:54:35;;;;;;;;;;;24.00;49.10;;;;;;492229;242;1199;-74
2022/10/22 08:56:36;;;;;;;;;;;23.90;49.10;;;;;;492213;242;1175;-74
2022/10/22 08:58:37;;;;;;;;;;;24.00;49.10;;;;;;492143;242;2176;-74
2022/10/22 09:00:39;;;;;;;;;;;23.90;49.20;;;;;;492184;242;1180;-74
2022/10/22 09:02:40;;;;;;;;;;;23.90;49.10;;;;;;492233;242;1206;-74
2022/10/22 09:04:41;;;;;;;;;;;24.00;49.10;;;;;;492217;242;1206;-74
2022/10/22 09:06:43;;;;;;;;;;;23.90;49.10;;;;;;492207;242;1180;-74
2022/10/22 09:08:44;;;;;;;;;;;23.90;49.20;;;;;;492153;242;1228;-74
2022/10/22 09:10:45;;;;;;;;;;;23.90;49.20;;;;;;492142;242;1192;-73
2022/10/22 09:12:47;;;;;;;;;;;23.90;49.20;;;;;;492194;242;1182;-74
2022/10/22 09:14:48;;;;;;;;;;;23.90;49.20;;;;;;492159;242;1142;-74
2022/10/22 09:16:49;;;;;;;;;;;23.90;49.10;;;;;;492201;242;1341;-74
2022/10/22 09:18:51;;;;;;;;;;;24.00;49.10;;;;;;492132;242;2153;-74
2022/10/22 09:20:52;;;;;;;;;;;24.00;49.10;;;;;;492190;242;1283;-74
2022/10/22 09:22:53;;;;;;;;;;;24.00;49.00;;;;;;492186;242;1216;-74
2022/10/22 09:24:55;;;;;;;;;;;24.00;48.80;;;;;;492104;242;1186;-74
2022/10/22 09:26:56;;;;;;;;;;;24.00;48.80;;;;;;492172;242;1201;-74
2022/10/22 09:28:57;;;;;;;;;;;24.00;48.90;;;;;;492164;242;1187;-74
2022/10/22 09:30:59;;;;;;;;;;;24.00;49.00;;;;;;492198;242;1152;-74
2022/10/22 09:33:00;;;;;;;;;;;24.10;48.90;;;;;;492154;242;1286;-74
2022/10/22 09:35:01;;;;;;;;;;;24.00;49.00;;;;;;492191;242;1367;-74
2022/10/22 09:37:02;;;;;;;;;;;24.00;49.00;;;;;;492116;242;1057;-74
2022/10/22 09:39:04;;;;;;;;;;;24.00;48.90;;;;;;492153;242;2200;-74
2022/10/22 09:41:05;;;;;;;;;;;24.00;49.00;;;;;;492140;242;1132;-74
2022/10/22 09:43:07;;;;;;;;;;;24.00;49.00;;;;;;492181;242;1165;-74
2022/10/22 09:45:08;;;;;;;;;;;24.10;49.00;;;;;;492196;242;1124;-74
2022/10/22 09:47:09;;;;;;;;;;;24.00;49.00;;;;;;492200;242;1187;-74
2022/10/22 09:49:11;;;;;;;;;;;24.10;49.00;;;;;;492265;242;1189;-74
2022/10/22 09:51:12;;;;;;;;;;;24.10;48.90;;;;;;492170;242;1073;-74
2022/10/22 09:53:13;;;;;;;;;;;24.10;49.00;;;;;;492203;242;1176;-74
2022/10/22 09:55:15;;;;;;;;;;;24.00;49.00;;;;;;492202;242;1090;-74
2022/10/22 09:57:16;;;;;;;;;;;24.10;49.00;;;;;;492177;242;1215;-74
2022/10/22 09:59:17;;;;;;;;;;;24.10;49.00;;;;;;492199;242;2155;-74
2022/10/22 10:01:19;;;;;;;;;;;24.10;49.10;;;;;;492140;242;1188;-74
2022/10/22 10:03:20;;;;;;;;;;;24.10;49.00;;;;;;492247;242;1184;-74
2022/10/22 10:05:21;;;;;;;;;;;24.10;49.10;;;;;;492227;242;1164;-74
2022/10/22 10:07:23;;;;;;;;;;;24.10;49.00;;;;;;492133;242;1141;-74
2022/10/22 10:09:24;;;;;;;;;;;24.10;49.00;;;;;;492187;242;1157;-74
2022/10/22 10:11:25;;;;;;;;;;;24.10;49.00;;;;;;492246;242;1130;-74
2022/10/22 10:13:27;;;;;;;;;;;24.10;49.00;;;;;;492172;242;1169;-74
2022/10/22 10:15:28;;;;;;;;;;;24.20;49.10;;;;;;492197;242;1181;-74
2022/10/22 10:17:29;;;;;;;;;;;24.20;49.00;;;;;;492162;242;1168;-74
2022/10/22 10:19:31;;;;;;;;;;;24.20;49.00;;;;;;492146;242;2172;-74
2022/10/22 10:21:32;;;;;;;;;;;24.20;49.10;;;;;;492198;242;1178;-74
2022/10/22 10:23:33;;;;;;;;;;;24.20;49.10;;;;;;492147;242;1155;-74
2022/10/22 10:25:35;;;;;;;;;;;24.20;49.00;;;;;;492166;242;1269;-74
2022/10/22 10:27:36;;;;;;;;;;;24.20;49.10;;;;;;492101;242;1190;-74
2022/10/22 10:29:37;;;;;;;;;;;24.20;49.10;;;;;;492156;242;1133;-74
2022/10/22 10:31:39;;;;;;;;;;;24.20;49.10;;;;;;492120;242;1352;-74
2022/10/22 10:33:40;;;;;;;;;;;24.30;49.10;;;;;;492174;242;1168;-74
2022/10/22 10:35:41;;;;;;;;;;;24.30;49.10;;;;;;492135;242;1209;-74
2022/10/22 10:37:43;;;;;;;;;;;24.20;49.10;;;;;;492177;242;1200;-74
2022/10/22 10:39:44;;;;;;;;;;;24.30;49.20;;;;;;492160;242;2195;-74
2022/10/22 10:41:45;;;;;;;;;;;24.30;49.10;;;;;;492213;242;1188;-74
2022/10/22 10:43:47;;;;;;;;;;;24.30;49.20;;;;;;492158;242;1157;-74
2022/10/22 10:45:48;;;;;;;;;;;24.30;49.20;;;;;;492234;242;1180;-74
2022/10/22 10:47:49;;;;;;;;;;;24.30;49.20;;;;;;492111;242;1274;-74
2022/10/22 10:49:51;;;;;;;;;;;24.30;49.20;;;;;;492256;242;1121;-74
2022/10/22 10:51:52;;;;;;;;;;;24.40;49.10;;;;;;492269;242;1083;-74
2022/10/22 10:53:53;;;;;;;;;;;24.40;49.10;;;;;;492204;242;1228;-74
2022/10/22 10:55:55;;;;;;;;;;;24.40;49.20;;;;;;492271;242;1331;-74
2022/10/22 10:57:56;;;;;;;;;;;24.30;49.20;;;;;;492186;242;1146;-74
2022/10/22 10:59:57;;;;;;;;;;;24.30;49.20;;;;;;492186;242;2180;-74
2022/10/22 11:01:59;;;;;;;;;;;24.30;49.30;;;;;;492206;242;1196;-74
2022/10/22 11:04:00;;;;;;;;;;;24.30;49.30;;;;;;492150;242;1191;-74
2022/10/22 11:06:02;;;;;;;;;;;24.40;49.30;;;;;;492213;242;1227;-74
2022/10/22 11:08:03;;;;;;;;;;;24.30;49.30;;;;;;492252;242;1189;-74
2022/10/22 11:10:04;;;;;;;;;;;24.40;49.30;;;;;;492190;242;1136;-74
2022/10/22 11:12:06;;;;;;;;;;;24.30;49.30;;;;;;492226;242;1425;-74
2022/10/22 11:14:07;;;;;;;;;;;24.40;49.30;;;;;;492131;242;1110;-74
2022/10/22 11:16:08;;;;;;;;;;;24.40;49.30;;;;;;492205;242;1213;-74
2022/10/22 11:18:10;;;;;;;;;;;24.40;49.40;;;;;;492154;242;1087;-74
2022/10/22 11:20:11;;;;;;;;;;;24.40;49.40;;;;;;492188;242;2211;-74
2022/10/22 11:22:12;;;;;;;;;;;24.40;49.40;;;;;;492172;242;1115;-74
2022/10/22 11:24:14;;;;;;;;;;;24.40;49.50;;;;;;492209;242;1147;-74
2022/10/22 11:26:15;;;;;;;;;;;24.40;49.40;;;;;;492245;242;1175;-74
2022/10/22 11:28:16;;;;;;;;;;;24.40;49.30;;;;;;492255;242;1265;-74
2022/10/22 11:30:18;;;;;;;;;;;24.40;49.50;;;;;;492147;242;1161;-74
2022/10/22 11:32:19;;;;;;;;;;;24.40;49.40;;;;;;492241;242;1164;-74
2022/10/22 11:34:21;;;;;;;;;;;24.40;49.30;;;;;;492216;242;1149;-74
2022/10/22 11:36:22;;;;;;;;;;;24.50;49.30;;;;;;492208;242;1185;-74
2022/10/22 11:38:23;;;;;;;;;;;24.40;49.30;;;;;;492200;242;1239;-74
2022/10/22 11:40:24;;;;;;;;;;;24.40;49.30;;;;;;492144;242;2192;-74
2022/10/22 11:42:26;;;;;;;;;;;24.50;49.20;;;;;;492210;242;1109;-74
2022/10/22 11:44:29;;;;;;;;;;;24.50;49.30;;;;;;492189;242;1206;-74
2022/10/22 11:46:28;;;;;;;;;;;24.40;49.30;;;;;;492283;242;1278;-74
2022/10/22 11:48:30;;;;;;;;;;;24.40;49.30;;;;;;492172;242;1162;-74
2022/10/22 11:50:31;;;;;;;;;;;24.40;49.30;;;;;;492224;242;1175;-74
2022/10/22 11:52:32;;;;;;;;;;;24.40;49.30;;;;;;492220;242;1089;-74
2022/10/22 11:54:36;;;;;;;;;;;24.40;49.40;;;;;;492299;242;1128;-74
2022/10/22 11:56:35;;;;;;;;;;;24.40;49.40;;;;;;492241;242;1297;-74